Impacts TAF Board
For situational awareness. Not to be used for flight planning purposes.
IDs:

KPNS - Pensacola Intl, FL, US

Issued at 2328 UTC 17 Oct 2018
Updated at 0511 UTC 18 Oct 2018
Potential Impact None Slight Moderate High
Time<<18/18Z 18/19Z 18/20Z 18/21Z 18/22Z 18/23Z 19/00Z 19/01Z 19/02Z 19/03Z 19/04Z 19/05Z 19/06Z>>
Type PRVL PRVL PRVL PRVL PRVL PRVL
VIS >6 >6 >6 >6 >6 >6
CIG -- -- -- -- -- --
Cover SKC SKC SKC SKC SKC SKC
FltCat VFR VFR VFR VFR VFR VFR
WX -- -- -- -- -- --
WDir 20 20 20 20 20 20
WSpd 11 11 11 11 11 11
WGst -- -- -- -- -- --
Raw TAF
KPNS 172328Z 1800/1824 36008KT P6SM SKC
  FM180300 01007KT P6SM FEW030 BKN250
  FM181500 02011KT P6SM SKC


METAR Board
Radar Display
Forecast Discussion
For situational awareness. Not to be used for flight planning purposes.